createdAt,value
2022-09-12T00:01:44.594Z,99846.79
2022-09-12T00:04:17.723Z,99848.76
2022-09-12T00:06:54.053Z,99844.23
2022-09-12T00:09:30.034Z,99847.40
2022-09-12T00:12:06.428Z,99847.08
2022-09-12T00:14:39.691Z,99849.02
2022-09-12T00:17:15.643Z,99849.70
2022-09-12T00:19:48.772Z,99849.38
2022-09-12T00:22:21.954Z,99850.47
2022-09-12T00:25:14.249Z,99844.67
2022-09-12T00:27:50.914Z,99845.55
2022-09-12T00:30:24.263Z,99843.95
2022-09-12T00:33:11.802Z,99841.71
2022-09-12T00:35:50.005Z,99847.95
2022-09-12T00:38:23.559Z,99842.55
2022-09-12T00:40:59.913Z,99843.12
2022-09-12T00:43:42.836Z,99841.21
2022-09-12T00:46:37.578Z,99838.32
2022-09-12T00:49:17.599Z,99840.61
2022-09-12T00:51:54.742Z,99836.77
2022-09-12T00:54:29.665Z,99840.89
2022-09-12T00:57:08.546Z,99846.48
2022-09-12T00:59:55.770Z,99846.75
2022-09-12T01:02:29.832Z,99847.52
2022-09-12T01:05:03.501Z,99845.43
2022-09-12T01:07:40.175Z,99848.83
2022-09-12T01:10:16.972Z,99852.27
2022-09-12T01:12:53.739Z,99854.99
2022-09-12T01:15:27.433Z,99851.77
2022-09-12T01:18:19.441Z,99855.45
2022-09-12T01:21:21.770Z,99858.96
2022-09-12T01:24:36.064Z,99856.51
2022-09-12T01:27:41.506Z,99860.84
2022-09-12T01:30:26.874Z,99862.30
2022-09-12T01:33:18.926Z,99866.57
2022-09-12T01:36:03.398Z,99861.00
2022-09-12T01:39:02.729Z,99863.64
2022-09-12T01:41:56.308Z,99869.27
2022-09-12T01:44:57.054Z,99867.58
2022-09-12T01:47:41.073Z,99870.80
2022-09-12T01:50:21.981Z,99870.14
2022-09-12T01:53:20.908Z,99874.25
2022-09-12T01:56:01.753Z,99872.83
2022-09-12T01:58:45.284Z,99873.75
2022-09-12T02:01:27.781Z,99875.06
2022-09-12T02:04:10.232Z,99877.48
2022-09-12T02:06:49.795Z,99877.03
2022-09-12T02:09:29.935Z,99873.59
2022-09-12T02:12:05.839Z,99871.80
2022-09-12T02:14:53.723Z,99873.16
2022-09-12T02:17:42.726Z,99871.69
2022-09-12T02:20:44.311Z,99877.31
2022-09-12T02:23:22.452Z,99876.50
2022-09-12T02:26:01.909Z,99876.34
2022-09-12T02:28:47.090Z,99879.89
2022-09-12T02:31:28.764Z,99880.71
2022-09-12T02:34:34.714Z,99885.35
2022-09-12T02:37:40.129Z,99883.99
2022-09-12T02:40:16.552Z,99883.55
2022-09-12T02:42:49.866Z,99881.92
2022-09-12T02:45:24.119Z,99883.83
2022-09-12T02:48:20.852Z,99889.55
2022-09-12T02:50:57.866Z,99892.02
2022-09-12T02:53:32.657Z,99891.91
2022-09-12T02:56:09.711Z,99897.26
2022-09-12T02:58:52.138Z,99895.39
2022-09-12T03:02:00.174Z,99903.59
2022-09-12T03:05:14.757Z,99896.05
2022-09-12T03:08:20.200Z,99899.29
2022-09-12T03:11:20.192Z,99899.39
2022-09-12T03:14:24.213Z,99903.59
2022-09-12T03:17:27.637Z,99908.66
2022-09-12T03:20:17.292Z,99908.55
2022-09-12T03:22:58.571Z,99913.10
2022-09-12T03:25:47.366Z,99915.06
2022-09-12T03:28:42.274Z,99920.73
2022-09-12T03:31:35.924Z,99921.88
2022-09-12T03:34:13.534Z,99925.77
2022-09-12T03:36:46.955Z,99927.79
2022-09-12T03:39:30.456Z,99930.52
2022-09-12T03:42:07.264Z,99931.33
2022-09-12T03:44:43.235Z,99939.35
2022-09-12T03:47:29.399Z,99937.77
2022-09-12T03:50:13.129Z,99937.77
2022-09-12T03:52:46.360Z,99939.73
2022-09-12T03:55:19.508Z,99939.26
2022-09-12T03:58:03.416Z,99940.39
2022-09-12T04:00:56.775Z,99942.41
2022-09-12T04:03:29.894Z,99935.74
2022-09-12T04:06:03.085Z,99939.13
2022-09-12T04:08:40.138Z,99942.09
2022-09-12T04:11:15.833Z,99942.03
2022-09-12T04:13:50.069Z,99946.73
2022-09-12T04:16:23.898Z,99947.91
2022-09-12T04:18:57.819Z,99947.05
2022-09-12T04:21:34.078Z,99952.13
2022-09-12T04:24:10.289Z,99958.13
2022-09-12T04:26:43.471Z,99957.63
2022-09-12T04:29:17.319Z,99953.70
2022-09-12T04:31:50.991Z,99955.81
2022-09-12T04:34:24.029Z,99959.00
2022-09-12T04:36:57.049Z,99961.33
2022-09-12T04:39:32.671Z,99960.20
2022-09-12T04:42:07.530Z,99967.23
2022-09-12T04:45:01.252Z,99967.56
2022-09-12T04:47:34.428Z,99963.09
2022-09-12T04:50:08.925Z,99964.66
2022-09-12T04:52:41.943Z,99961.50
2022-09-12T04:55:14.919Z,99967.67
2022-09-12T04:57:58.044Z,99971.66
2022-09-12T05:00:35.470Z,99970.58
2022-09-12T05:03:10.903Z,99972.06
2022-09-12T05:06:05.433Z,99973.98
2022-09-12T05:08:42.032Z,99979.36
2022-09-12T05:11:16.816Z,99979.97
2022-09-12T05:14:03.663Z,99976.80
2022-09-12T05:16:36.944Z,99980.95
2022-09-12T05:19:12.393Z,99982.54
2022-09-12T05:21:45.494Z,99992.30
2022-09-12T05:24:18.958Z,99991.83
2022-09-12T05:27:01.102Z,99994.39
2022-09-12T05:29:36.429Z,99997.99
2022-09-12T05:32:12.758Z,99997.08
2022-09-12T05:34:54.721Z,99996.43
2022-09-12T05:37:48.159Z,99998.02
2022-09-12T05:40:32.547Z,99997.19
2022-09-12T05:43:15.793Z,100000.14
2022-09-12T05:45:52.001Z,100002.82
2022-09-12T05:48:26.952Z,100008.60
2022-09-12T05:51:05.208Z,100004.84
2022-09-12T05:53:48.388Z,100004.84
2022-09-12T05:56:24.055Z,100008.18
2022-09-12T05:58:59.703Z,100002.73
2022-09-12T06:01:42.052Z,100007.03
2022-09-12T06:04:16.134Z,100002.30
2022-09-12T06:06:52.159Z,100001.04
2022-09-12T06:09:45.493Z,99997.61
2022-09-12T06:12:18.654Z,99999.46
2022-09-12T06:15:14.715Z,99999.41
2022-09-12T06:17:51.503Z,100001.00
2022-09-12T06:20:28.408Z,100001.65
2022-09-12T06:23:04.535Z,99999.86
2022-09-12T06:25:37.883Z,99998.27
2022-09-12T06:28:13.582Z,100000.95
2022-09-12T06:30:46.670Z,100002.27
2022-09-12T06:33:20.394Z,100003.48
2022-09-12T06:35:56.621Z,100005.98
2022-09-12T06:38:39.760Z,100006.26
2022-09-12T06:41:14.624Z,100013.74
2022-09-12T06:43:47.908Z,100013.52
2022-09-12T06:46:21.365Z,100011.23
2022-09-12T06:48:54.888Z,100012.98
2022-09-12T06:51:48.540Z,100011.13
2022-09-12T06:54:42.878Z,100011.73
2022-09-12T06:57:30.649Z,100010.86
2022-09-12T07:00:08.614Z,100011.02
2022-09-12T07:02:42.220Z,100015.73
2022-09-12T07:05:18.672Z,100017.63
2022-09-12T07:07:52.046Z,100017.80
2022-09-12T07:10:25.277Z,100019.16
2022-09-12T07:13:08.616Z,100022.48
2022-09-12T07:15:52.849Z,100022.06
2022-09-12T07:18:35.609Z,100022.34
2022-09-12T07:21:29.712Z,100028.45
2022-09-12T07:24:14.000Z,100031.68
2022-09-12T07:27:07.747Z,100030.52
2022-09-12T07:29:44.566Z,100031.56
2022-09-12T07:32:17.863Z,100042.73
2022-09-12T07:34:54.067Z,100047.09
2022-09-12T07:37:29.786Z,100046.98
2022-09-12T07:40:03.921Z,100049.55
2022-09-12T07:42:37.271Z,100056.23
2022-09-12T07:45:11.785Z,100056.91
2022-09-12T07:47:45.235Z,100060.18
2022-09-12T07:50:21.710Z,100061.55
2022-09-12T07:52:56.712Z,100061.45
2022-09-12T07:55:29.918Z,100067.90
2022-09-12T07:58:04.098Z,100065.11
2022-09-12T08:01:02.956Z,100068.77
2022-09-12T08:03:49.426Z,100067.95
2022-09-12T08:06:25.324Z,100071.83
2022-09-12T08:09:00.343Z,100070.52
2022-09-12T08:11:43.009Z,100077.23
2022-09-12T08:14:19.289Z,100079.55
2022-09-12T08:16:52.483Z,100082.83
2022-09-12T08:19:25.875Z,100082.98
2022-09-12T08:22:11.514Z,100080.69
2022-09-12T08:25:05.571Z,100079.86
2022-09-12T08:27:59.141Z,100078.70
2022-09-12T08:30:32.341Z,100080.67
2022-09-12T08:33:05.449Z,100079.45
2022-09-12T08:35:48.483Z,100077.85
2022-09-12T08:38:21.781Z,100076.36
2022-09-12T08:41:03.651Z,100081.17
2022-09-12T08:43:56.834Z,100079.23
2022-09-12T08:46:38.188Z,100078.45
2022-09-12T08:49:16.836Z,100077.97
2022-09-12T08:51:53.372Z,100081.24
2022-09-12T08:54:47.960Z,100080.63
2022-09-12T08:57:21.199Z,100082.20
2022-09-12T08:59:55.208Z,100086.95
2022-09-12T09:02:54.652Z,100086.02
2022-09-12T09:05:40.095Z,100087.98
2022-09-12T09:08:36.897Z,100089.00
2022-09-12T09:11:22.719Z,100084.77
2022-09-12T09:14:29.783Z,100089.36
2022-09-12T09:17:17.197Z,100087.10
2022-09-12T09:20:06.215Z,100087.97
2022-09-12T09:22:53.528Z,100089.33
2022-09-12T09:25:54.154Z,100095.64
2022-09-12T09:28:37.928Z,100091.03
2022-09-12T09:31:18.525Z,100092.29
2022-09-12T09:33:54.435Z,100092.23
2022-09-12T09:36:40.573Z,100092.27
2022-09-12T09:39:26.515Z,100090.48
2022-09-12T09:42:12.118Z,100097.54
2022-09-12T09:44:47.447Z,100099.50
2022-09-12T09:47:24.018Z,100103.10
2022-09-12T09:50:00.778Z,100102.02
2022-09-12T09:52:39.034Z,100102.17
2022-09-12T09:55:22.328Z,100102.98
2022-09-12T09:57:56.026Z,100106.00
2022-09-12T10:00:36.288Z,100106.83
2022-09-12T10:03:31.490Z,100108.39
2022-09-12T10:06:32.658Z,100109.56
2022-09-12T10:09:25.990Z,100115.70
2022-09-12T10:11:59.570Z,100117.80
2022-09-12T10:14:41.899Z,100120.20
2022-09-12T10:17:34.309Z,100125.13
2022-09-12T10:20:34.922Z,100127.58
2022-09-12T10:23:31.031Z,100129.34
2022-09-12T10:26:10.148Z,100132.79
2022-09-12T10:28:51.036Z,100134.48
2022-09-12T10:31:30.555Z,100133.77
2022-09-12T10:34:06.017Z,100135.48
2022-09-12T10:36:43.069Z,100138.27
2022-09-12T10:39:21.897Z,100140.63
2022-09-12T10:41:57.491Z,100141.66
2022-09-12T10:44:55.931Z,100142.65
2022-09-12T10:47:33.889Z,100142.48
2022-09-12T10:50:26.395Z,100145.80
2022-09-12T10:53:18.392Z,100147.55
2022-09-12T10:56:07.393Z,100145.25
2022-09-12T10:59:01.529Z,100152.59
2022-09-12T11:01:44.469Z,100150.81
2022-09-12T11:04:41.542Z,100152.67
2022-09-12T11:07:39.813Z,100153.69
2022-09-12T11:10:37.476Z,100152.58
2022-09-12T11:13:52.773Z,100154.19
2022-09-12T11:16:42.695Z,100157.35
2022-09-12T11:19:51.385Z,100154.59
2022-09-12T11:22:36.237Z,100155.65
2022-09-12T11:25:24.696Z,100152.77
2022-09-12T11:28:27.580Z,100154.89
2022-09-12T11:31:26.702Z,100154.98
2022-09-12T11:34:04.451Z,100152.09
2022-09-12T11:36:58.039Z,100154.48
2022-09-12T11:39:40.436Z,100155.86
2022-09-12T11:42:20.235Z,100153.23
2022-09-12T11:45:00.918Z,100156.52
2022-09-12T11:47:37.847Z,100157.33
2022-09-12T11:50:22.252Z,100156.97
2022-09-12T11:52:59.394Z,100156.08
2022-09-12T11:55:52.896Z,100158.75
2022-09-12T11:58:30.182Z,100161.23
2022-09-12T12:01:11.941Z,100162.27
2022-09-12T12:03:47.844Z,100164.67
2022-09-12T12:06:23.516Z,100161.45
2022-09-12T12:08:58.865Z,100162.60
2022-09-12T12:11:36.173Z,100160.47
2022-09-12T12:14:17.327Z,100161.48
2022-09-12T12:16:51.564Z,100161.27
2022-09-12T12:19:38.430Z,100159.64
2022-09-12T12:22:19.430Z,100159.58
2022-09-12T12:25:05.959Z,100160.20
2022-09-12T12:27:57.302Z,100164.04
2022-09-12T12:31:03.733Z,100162.13
2022-09-12T12:33:56.911Z,100161.75
2022-09-12T12:36:49.959Z,100165.35
2022-09-12T12:40:01.441Z,100167.42
2022-09-12T12:43:22.878Z,100165.34
2022-09-12T12:46:13.927Z,100163.44
2022-09-12T12:49:02.644Z,100165.80
2022-09-12T12:52:03.564Z,100170.16
2022-09-12T12:54:58.260Z,100169.45
2022-09-12T12:57:42.220Z,100171.17
2022-09-12T13:03:31.878Z,100170.25
2022-09-12T13:06:08.717Z,100171.05
2022-09-12T13:08:47.875Z,100175.38
2022-09-12T13:11:36.184Z,100179.16
2022-09-12T13:14:58.867Z,100176.38
2022-09-12T13:17:40.966Z,100173.84
2022-09-12T13:20:28.986Z,100176.52
2022-09-12T13:23:02.754Z,100171.23
2022-09-12T13:25:38.231Z,100175.81
2022-09-12T13:28:19.954Z,100176.23
2022-09-12T13:31:01.306Z,100176.46
2022-09-12T13:33:43.520Z,100174.43
2022-09-12T13:36:48.222Z,100182.02
2022-09-12T13:39:28.125Z,100180.48
2022-09-12T13:42:33.857Z,100178.79
2022-09-12T13:45:13.583Z,100180.26
2022-09-12T13:47:56.530Z,100177.62
2022-09-12T13:50:39.215Z,100180.23
2022-09-12T13:53:18.395Z,100178.90
2022-09-12T13:55:55.644Z,100177.79
2022-09-12T13:58:30.750Z,100179.18
2022-09-12T14:01:14.382Z,100175.48
2022-09-12T14:04:11.451Z,100174.16
2022-09-12T14:06:50.324Z,100176.23
2022-09-12T14:09:29.405Z,100174.14
2022-09-12T14:12:06.312Z,100177.73
2022-09-12T14:14:44.210Z,100175.98
2022-09-12T14:17:40.242Z,100176.67
2022-09-12T14:20:18.832Z,100171.69
2022-09-12T14:22:55.927Z,100170.45
2022-09-12T14:25:32.194Z,100172.21
2022-09-12T14:28:06.450Z,100172.02
2022-09-12T14:30:40.391Z,100171.89
2022-09-12T14:33:24.015Z,100175.38
2022-09-12T14:36:20.046Z,100172.30
2022-09-12T14:39:04.220Z,100171.27
2022-09-12T14:41:42.078Z,100171.31
2022-09-12T14:44:28.510Z,100165.91
2022-09-12T14:47:22.473Z,100166.52
2022-09-12T14:49:56.330Z,100168.78
2022-09-12T14:52:33.866Z,100164.95
2022-09-12T14:55:33.982Z,100167.33
2022-09-12T14:58:26.592Z,100169.08
2022-09-12T15:01:03.256Z,100169.94
2022-09-12T15:03:38.929Z,100171.61
2022-09-12T15:06:26.862Z,100168.81
2022-09-12T15:09:14.576Z,100169.14
2022-09-12T15:11:50.320Z,100173.34
2022-09-12T15:14:26.686Z,100173.07
2022-09-12T15:17:02.824Z,100177.95
2022-09-12T15:19:36.175Z,100178.02
2022-09-12T15:22:14.350Z,100178.34
2022-09-12T15:24:50.390Z,100181.12
2022-09-12T15:27:27.729Z,100183.08
2022-09-12T15:30:03.411Z,100181.63
2022-09-12T15:32:38.146Z,100183.52
2022-09-12T15:35:18.370Z,100187.96
2022-09-12T15:37:51.723Z,100187.41
2022-09-12T15:40:26.660Z,100192.66
2022-09-12T15:43:03.365Z,100189.45
2022-09-12T15:45:47.656Z,100188.91
2022-09-12T15:48:23.630Z,100192.48
2022-09-12T15:51:01.762Z,100191.38
2022-09-12T15:53:44.114Z,100194.35
2022-09-12T15:56:26.768Z,100192.98
2022-09-12T15:59:00.454Z,100189.61
2022-09-12T16:01:34.000Z,100190.15
2022-09-12T16:04:20.845Z,100189.13
2022-09-12T16:06:54.965Z,100188.52
2022-09-12T16:09:28.523Z,100187.10
2022-09-12T16:12:21.880Z,100186.84
2022-09-12T16:14:55.089Z,100195.16
2022-09-12T16:17:36.665Z,100194.89
2022-09-12T16:20:13.890Z,100189.10
2022-09-12T16:22:47.301Z,100194.55
2022-09-12T16:25:21.258Z,100196.89
2022-09-12T16:27:54.520Z,100195.88
2022-09-12T16:30:30.753Z,100193.87
2022-09-12T16:33:04.360Z,100193.83
2022-09-12T16:35:47.675Z,100190.81
2022-09-12T16:38:20.890Z,100188.41
2022-09-12T16:41:15.054Z,100189.52
2022-09-12T16:43:49.328Z,100190.63
2022-09-12T16:46:24.996Z,100186.69
2022-09-12T16:48:59.512Z,100188.05
2022-09-12T16:51:36.328Z,100185.69
2022-09-12T16:54:09.438Z,100189.70
2022-09-12T16:56:42.892Z,100189.16
2022-09-12T16:59:19.459Z,100193.50
2022-09-12T17:01:55.691Z,100194.18
2022-09-12T17:04:32.436Z,100196.19
2022-09-12T17:07:05.532Z,100196.96
2022-09-12T17:09:38.694Z,100200.20
2022-09-12T17:12:12.476Z,100202.96
2022-09-12T17:14:45.653Z,100204.39
2022-09-12T17:17:18.878Z,100207.36
2022-09-12T17:19:55.506Z,100207.70
2022-09-12T17:22:28.939Z,100212.30
2022-09-12T17:25:05.322Z,100208.47
2022-09-12T17:27:38.550Z,100213.69
2022-09-12T17:30:14.016Z,100213.51
2022-09-12T17:32:47.235Z,100207.34
2022-09-12T17:35:20.950Z,100207.45
2022-09-12T17:38:19.330Z,100204.58
2022-09-12T17:40:59.785Z,100208.07
2022-09-12T17:43:34.014Z,100208.04
2022-09-12T17:46:07.925Z,100211.81
2022-09-12T17:48:42.016Z,100209.67
2022-09-12T17:51:18.569Z,100207.91
2022-09-12T17:53:57.043Z,100211.59
2022-09-12T17:56:40.804Z,100208.98
2022-09-12T17:59:35.020Z,100211.69
2022-09-12T18:02:14.403Z,100208.88
2022-09-12T18:04:48.996Z,100204.38
2022-09-12T18:07:23.547Z,100208.73
2022-09-12T18:09:56.964Z,100204.95
2022-09-12T18:12:30.757Z,100210.89
2022-09-12T18:15:04.326Z,100210.24
2022-09-12T18:17:38.026Z,100208.44
2022-09-12T18:20:14.591Z,100207.80
2022-09-12T18:22:50.797Z,100213.39
2022-09-12T18:25:27.955Z,100209.33
2022-09-12T18:28:04.153Z,100208.61
2022-09-12T18:30:42.590Z,100206.13
2022-09-12T18:33:17.993Z,100213.70
2022-09-12T18:35:54.994Z,100210.64
2022-09-12T18:38:28.596Z,100210.65
2022-09-12T18:41:07.507Z,100210.38
2022-09-12T18:43:42.418Z,100207.85
2022-09-12T18:46:17.928Z,100212.13
2022-09-12T18:48:51.946Z,100214.32
2022-09-12T18:51:32.063Z,100216.53
2022-09-12T18:54:07.680Z,100212.09
2022-09-12T18:56:44.936Z,100204.64
2022-09-12T18:59:18.977Z,100206.13
2022-09-12T19:01:54.893Z,100210.09
2022-09-12T19:04:31.861Z,100213.16
2022-09-12T19:07:08.445Z,100215.92
2022-09-12T19:09:48.817Z,100216.58
2022-09-12T19:12:22.329Z,100218.06
2022-09-12T19:14:59.037Z,100219.39
2022-09-12T19:17:36.463Z,100216.50
2022-09-12T19:20:16.344Z,100219.17
2022-09-12T19:22:53.062Z,100221.64
2022-09-12T19:25:26.619Z,100221.48
2022-09-12T19:28:00.152Z,100219.46
2022-09-12T19:30:37.430Z,100215.48
2022-09-12T19:33:12.574Z,100215.16
2022-09-12T19:35:51.128Z,100208.05
2022-09-12T19:38:44.937Z,100204.54
2022-09-12T19:41:20.771Z,100204.44
2022-09-12T19:43:54.594Z,100199.69
2022-09-12T19:46:48.495Z,100200.61
2022-09-12T19:49:21.575Z,100202.60
2022-09-12T19:51:55.358Z,100198.59
2022-09-12T19:54:28.426Z,100194.17
2022-09-12T19:57:01.854Z,100192.64
2022-09-12T19:59:35.150Z,100198.08
2022-09-12T20:02:09.790Z,100195.61
2022-09-12T20:04:52.099Z,100195.61
2022-09-12T20:07:34.129Z,100198.75
2022-09-12T20:10:12.054Z,100193.06
2022-09-12T20:12:45.317Z,100192.20
2022-09-12T20:15:28.700Z,100189.41
2022-09-12T20:18:04.903Z,100192.21
2022-09-12T20:20:40.459Z,100190.73
2022-09-12T20:23:16.315Z,100193.04
2022-09-12T20:25:52.239Z,100193.20
2022-09-12T20:28:28.133Z,100198.13
2022-09-12T20:31:09.660Z,100197.54
2022-09-12T20:33:51.114Z,100196.27
2022-09-12T20:36:36.592Z,100195.45
2022-09-12T20:39:22.486Z,100192.83
2022-09-12T20:41:55.803Z,100192.34
2022-09-12T20:44:30.518Z,100191.14
2022-09-12T20:47:03.612Z,100188.85
2022-09-12T20:49:39.964Z,100190.32
2022-09-12T20:52:13.456Z,100191.80
2022-09-12T20:54:46.887Z,100193.38
2022-09-12T20:57:23.526Z,100188.58
2022-09-12T20:59:56.538Z,100189.72
2022-09-12T21:02:30.307Z,100190.31
2022-09-12T21:05:24.049Z,100188.90
2022-09-12T21:08:16.772Z,100187.85
2022-09-12T21:11:10.566Z,100187.35
2022-09-12T21:13:44.055Z,100189.06
2022-09-12T21:16:21.920Z,100189.77
2022-09-12T21:18:59.050Z,100190.58
2022-09-12T21:21:32.360Z,100193.09
2022-09-12T21:24:06.913Z,100195.39
2022-09-12T21:26:40.077Z,100196.17
2022-09-12T21:29:16.418Z,100192.84
2022-09-12T21:31:49.748Z,100190.91
2022-09-12T21:34:26.193Z,100189.70
2022-09-12T21:37:01.857Z,100194.78
2022-09-12T21:39:44.291Z,100195.54
2022-09-12T21:42:20.153Z,100192.48
2022-09-12T21:45:04.554Z,100190.89
2022-09-12T21:47:40.654Z,100191.86
2022-09-12T21:50:18.304Z,100192.52
2022-09-12T21:52:55.146Z,100191.67
2022-09-12T21:55:29.082Z,100182.27
2022-09-12T21:58:04.539Z,100172.36
2022-09-12T22:00:41.775Z,100171.16
2022-09-12T22:03:19.163Z,100170.50
2022-09-12T22:05:59.397Z,100171.59
2022-09-12T22:08:34.254Z,100173.02
2022-09-12T22:11:27.750Z,100178.58
2022-09-12T22:14:01.484Z,100182.77
2022-09-12T22:16:37.306Z,100181.02
2022-09-12T22:19:15.336Z,100180.20
2022-09-12T22:22:13.277Z,100182.49
2022-09-12T22:24:46.272Z,100182.38
2022-09-12T22:27:22.532Z,100182.73
2022-09-12T22:30:12.201Z,100175.73
2022-09-12T22:32:45.459Z,100169.45
2022-09-12T22:35:19.341Z,100168.06
2022-09-12T22:37:55.845Z,100168.45
2022-09-12T22:40:49.224Z,100169.14
2022-09-12T22:43:22.575Z,100169.30
2022-09-12T22:45:55.940Z,100171.14
2022-09-12T22:48:32.237Z,100170.15
2022-09-12T22:51:05.716Z,100170.54
2022-09-12T22:53:42.371Z,100171.14
2022-09-12T22:56:16.494Z,100170.13
2022-09-12T22:58:49.508Z,100166.48
2022-09-12T23:01:23.247Z,100168.27
2022-09-12T23:04:02.006Z,100167.94
2022-09-12T23:06:37.654Z,100170.92
2022-09-12T23:09:11.044Z,100169.61
2022-09-12T23:11:46.969Z,100166.92
2022-09-12T23:14:20.605Z,100171.84
2022-09-12T23:16:53.706Z,100165.64
2022-09-12T23:19:30.096Z,100163.88
2022-09-12T23:22:06.640Z,100165.27
2022-09-12T23:24:42.357Z,100160.14
2022-09-12T23:27:18.497Z,100154.45
2022-09-12T23:29:54.956Z,100149.36
2022-09-12T23:32:28.798Z,100151.14
2022-09-12T23:35:02.954Z,100147.95
2022-09-12T23:37:38.276Z,100148.98
2022-09-12T23:40:20.304Z,100143.23
2022-09-12T23:42:56.892Z,100142.78
2022-09-12T23:45:32.602Z,100141.33
2022-09-12T23:48:06.528Z,100136.42
2022-09-12T23:50:39.575Z,100139.86
2022-09-12T23:53:16.966Z,100141.71
2022-09-12T23:56:00.955Z,100143.00
2022-09-12T23:58:36.512Z,100146.77
